createdAt,value
2018-01-26T00:00:41.944Z,5.47
2018-01-26T00:03:09.337Z,5.45
2018-01-26T00:05:36.751Z,5.30
2018-01-26T00:08:04.156Z,6.30
2018-01-26T00:10:31.556Z,4.37
2018-01-26T00:12:58.965Z,4.73
2018-01-26T00:15:26.358Z,5.33
2018-01-26T00:17:53.882Z,5.47
2018-01-26T00:20:21.277Z,6.57
2018-01-26T00:22:48.949Z,7.47
2018-01-26T00:25:16.331Z,6.83
2018-01-26T00:27:43.745Z,5.80
2018-01-26T00:30:11.674Z,5.25
2018-01-26T00:32:39.088Z,4.37
2018-01-26T00:35:06.588Z,4.30
2018-01-26T00:37:33.989Z,4.83
2018-01-26T00:40:01.454Z,4.93
2018-01-26T00:42:28.848Z,3.63
2018-01-26T00:44:56.867Z,4.53
2018-01-26T00:47:24.277Z,4.70
2018-01-26T00:49:52.438Z,5.27
2018-01-26T00:52:20.083Z,7.10
2018-01-26T00:54:47.473Z,4.27
2018-01-26T00:57:14.869Z,4.60
2018-01-26T00:59:42.265Z,3.80
2018-01-26T01:02:09.666Z,4.20
2018-01-26T01:04:37.091Z,4.23
2018-01-26T01:07:04.483Z,3.97
2018-01-26T01:09:31.880Z,3.80
2018-01-26T01:11:59.283Z,4.30
2018-01-26T01:14:26.692Z,4.10
2018-01-26T01:16:54.461Z,4.93
2018-01-26T01:19:21.865Z,5.47
2018-01-26T01:21:49.260Z,5.07
2018-01-26T01:24:16.660Z,5.77
2018-01-26T01:26:44.057Z,5.40
2018-01-26T01:29:11.501Z,4.73
2018-01-26T01:31:38.892Z,4.87
2018-01-26T01:34:06.312Z,5.60
2018-01-26T01:36:33.722Z,5.07
2018-01-26T01:39:01.114Z,4.80
2018-01-26T01:41:29.192Z,4.10
2018-01-26T01:43:56.709Z,4.30
2018-01-26T01:46:24.107Z,4.80
2018-01-26T01:49:03.323Z,5.47
2018-01-26T01:51:30.716Z,4.90
2018-01-26T01:53:58.128Z,5.20
2018-01-26T01:56:25.593Z,5.00
2018-01-26T01:58:53.005Z,5.27
2018-01-26T02:01:20.404Z,5.70
2018-01-26T02:03:47.809Z,5.70
2018-01-26T02:06:15.216Z,4.97
2018-01-26T02:08:42.620Z,5.70
2018-01-26T02:11:10.026Z,6.00
2018-01-26T02:13:37.437Z,6.20
2018-01-26T02:16:05.344Z,6.10
2018-01-26T02:18:32.762Z,6.10
2018-01-26T02:21:00.517Z,6.40
2018-01-26T02:23:27.930Z,7.10
2018-01-26T02:25:55.325Z,6.97
2018-01-26T02:28:22.725Z,7.72
2018-01-26T02:30:50.136Z,8.50
2018-01-26T02:33:17.525Z,8.53
2018-01-26T02:35:44.952Z,10.25
2018-01-26T02:38:13.271Z,9.35
2018-01-26T02:40:40.697Z,9.10
2018-01-26T02:43:08.096Z,10.97
2018-01-26T02:45:35.488Z,9.70
2018-01-26T02:48:02.906Z,9.60
2018-01-26T02:50:30.314Z,11.30
2018-01-26T02:52:59.423Z,11.43
2018-01-26T02:55:27.335Z,10.75
2018-01-26T02:57:55.613Z,11.50
2018-01-26T03:00:23.800Z,12.60
2018-01-26T03:02:51.205Z,13.10
2018-01-26T03:05:18.620Z,11.83
2018-01-26T03:07:46.088Z,12.90
2018-01-26T03:10:13.504Z,12.05
2018-01-26T03:12:40.906Z,13.60
2018-01-26T03:15:08.323Z,13.52
2018-01-26T03:17:35.726Z,12.70
2018-01-26T03:20:03.128Z,11.07
2018-01-26T03:22:30.580Z,12.63
2018-01-26T03:24:58.452Z,13.57
2018-01-26T03:27:25.852Z,12.57
2018-01-26T03:29:53.272Z,12.40
2018-01-26T03:32:20.696Z,13.62
2018-01-26T03:34:48.093Z,14.60
2018-01-26T03:37:15.498Z,13.17
2018-01-26T03:39:42.925Z,14.10
2018-01-26T03:42:10.327Z,16.57
2018-01-26T03:44:37.736Z,14.60
2018-01-26T03:47:05.147Z,14.53
2018-01-26T03:49:32.559Z,16.53
2018-01-26T03:51:59.976Z,14.53
2018-01-26T03:54:27.444Z,13.50
2018-01-26T03:56:54.852Z,15.30
2018-01-26T03:59:22.255Z,11.50
2018-01-26T04:01:50.048Z,13.02
2018-01-26T04:04:17.466Z,13.10
2018-01-26T04:06:45.659Z,13.75
2018-01-26T04:09:13.086Z,14.50
2018-01-26T04:11:40.485Z,13.73
2018-01-26T04:14:07.890Z,14.93
2018-01-26T04:16:35.562Z,13.60
2018-01-26T04:19:03.081Z,14.37
2018-01-26T04:21:33.539Z,14.10
2018-01-26T04:24:00.941Z,13.07
2018-01-26T04:26:28.355Z,16.10
2018-01-26T04:28:55.758Z,16.13
2018-01-26T04:31:23.164Z,13.73
2018-01-26T04:33:50.644Z,14.73
2018-01-26T04:36:18.044Z,13.40
2018-01-26T04:38:45.455Z,12.93
2018-01-26T04:41:12.866Z,11.20
2018-01-26T04:43:40.267Z,11.23
2018-01-26T04:46:07.684Z,10.93
2018-01-26T04:48:35.084Z,10.00
2018-01-26T04:51:02.507Z,9.87
2018-01-26T04:53:29.909Z,8.80
2018-01-26T04:55:57.315Z,9.30
2018-01-26T04:58:24.715Z,8.90
2018-01-26T05:00:52.132Z,10.80
2018-01-26T19:57:33.351Z,12.05
2018-01-26T20:00:00.800Z,11.95
2018-01-26T20:02:28.205Z,11.37
2018-01-26T20:05:12.995Z,11.55
2018-01-26T20:07:43.329Z,14.20
2018-01-26T20:10:10.730Z,14.27
2018-01-26T20:12:43.842Z,12.83
2018-01-26T20:15:11.299Z,13.53
2018-01-26T20:17:38.753Z,16.30
2018-01-26T20:20:06.191Z,16.57
2018-01-26T20:22:33.652Z,16.10
2018-01-26T20:42:36.231Z,16.67
2018-01-26T20:45:03.620Z,20.03
2018-01-26T20:47:31.070Z,20.60
2018-01-26T20:49:58.516Z,19.23
2018-01-26T20:52:25.970Z,19.60
2018-01-26T20:54:53.420Z,17.87
2018-01-26T20:57:20.868Z,19.80
2018-01-26T20:59:48.307Z,24.70
2018-01-26T21:02:15.701Z,21.97
2018-01-26T21:04:43.167Z,21.20
2018-01-26T21:07:10.616Z,19.10
2018-01-26T21:09:38.060Z,17.73
2018-01-26T21:12:05.500Z,19.70
2018-01-26T21:14:32.957Z,18.17
2018-01-26T21:17:00.353Z,18.53
2018-01-26T21:19:28.451Z,19.25
2018-01-26T21:21:55.895Z,20.20
2018-01-26T21:24:23.339Z,18.90
2018-01-26T21:26:50.778Z,15.90
2018-01-26T21:29:18.228Z,16.80
2018-01-26T21:31:45.663Z,15.47
2018-01-26T21:34:13.123Z,18.20
2018-01-26T21:36:40.575Z,15.77
2018-01-26T21:39:08.028Z,17.57
2018-01-26T21:41:35.489Z,19.03
2018-01-26T21:44:02.924Z,16.90
2018-01-26T21:46:30.367Z,19.20
2018-01-26T21:48:57.776Z,17.67
2018-01-26T21:51:25.217Z,17.80
2018-01-26T21:53:52.676Z,21.85
2018-01-26T21:56:20.132Z,38.70
2018-01-26T21:58:47.567Z,22.35
2018-01-26T22:02:40.845Z,24.30
2018-01-26T22:05:13.775Z,22.62
2018-01-26T22:07:41.245Z,24.40
2018-01-26T22:10:09.411Z,21.23
2018-01-26T22:12:36.869Z,19.02
2018-01-26T22:15:04.319Z,20.55
2018-01-26T22:17:31.765Z,20.17
2018-01-26T22:19:59.212Z,18.27
2018-01-26T22:22:26.654Z,20.15
2018-01-26T22:24:54.108Z,20.35
2018-01-26T22:27:21.547Z,18.42
2018-01-26T22:29:49.008Z,22.23
2018-01-26T22:32:16.463Z,22.45
2018-01-26T22:34:43.911Z,22.90
2018-01-26T22:37:11.366Z,17.80
2018-01-26T22:39:38.815Z,19.80
2018-01-26T22:42:06.272Z,22.52
2018-01-26T22:44:33.675Z,24.30
2018-01-26T22:47:01.136Z,25.85
2018-01-26T22:49:28.696Z,21.27
2018-01-26T22:51:56.098Z,24.30
2018-01-26T22:54:23.512Z,22.40
2018-01-26T22:56:50.923Z,24.98
2018-01-26T22:59:18.375Z,26.25
2018-01-26T23:01:45.826Z,27.73
2018-01-26T23:04:13.268Z,28.85
2018-01-26T23:06:40.756Z,31.90
2018-01-26T23:09:08.173Z,35.88
2018-01-26T23:11:35.567Z,34.03
2018-01-26T23:14:03.056Z,31.48
2018-01-26T23:16:30.464Z,29.95
2018-01-26T23:18:57.870Z,31.80
2018-01-26T23:21:25.334Z,30.83
2018-01-26T23:23:52.730Z,30.95
2018-01-26T23:26:20.191Z,33.55
2018-01-26T23:28:47.584Z,33.13
2018-01-26T23:31:15.006Z,40.70
2018-01-26T23:33:42.418Z,37.55
2018-01-26T23:36:09.831Z,35.10
2018-01-26T23:38:38.129Z,33.67
2018-01-26T23:41:05.528Z,33.90
2018-01-26T23:43:32.943Z,33.97
2018-01-26T23:46:00.362Z,33.92
2018-01-26T23:48:27.814Z,36.15
2018-01-26T23:50:55.212Z,36.70
2018-01-26T23:53:22.658Z,38.78
2018-01-26T23:55:50.060Z,36.38
2018-01-26T23:58:17.471Z,37.00
